Time;durP1;ratioP1;P1;durP2;ratioP2;P2;SDS_P1;SDS_P2;PMS_P1;PMS_P2;Temp;Humidity;BMP_temperature;BMP_pressure;BME280_temperature;BME280_humidity;BME280_pressure;Samples;Min_cycle;Max_cycle;Signal;HPM_P1;HPM_P2
2021/12/19 00:00:24;;;;;;;147.27;57.28;;;;;;;;;;5070299;28;20578;-79
2021/12/19 00:03:33;;;;;;;125.18;51.75;;;;;;;;;;5046176;28;20038;-79
2021/12/19 00:08:50;;;;;;;92.25;40.20;;;;;;;;;;4978528;28;20043;-79
2021/12/19 00:11:26;;;;;;;92.55;41.95;;;;;;;;;;5050152;28;20037;-79
2021/12/19 00:13:53;;;;;;;91.90;39.72;;;;;;;;;;5049611;28;20021;-79
2021/12/19 00:16:19;;;;;;;112.80;48.85;;;;;;;;;;5049949;28;20048;-79
2021/12/19 00:18:47;;;;;;;136.95;56.20;;;;;;;;;;5044928;28;20036;-79
2021/12/19 00:21:15;;;;;;;195.43;73.05;;;;;;;;;;5029853;28;20131;-79
2021/12/19 00:23:44;;;;;;;223.98;76.93;;;;;;;;;;5040598;28;20055;-80
2021/12/19 00:26:10;;;;;;;228.15;76.97;;;;;;;;;;5047226;28;20037;-79
2021/12/19 00:28:36;;;;;;;188.90;68.82;;;;;;;;;;5039894;28;20036;-80
2021/12/19 00:31:03;;;;;;;222.70;75.68;;;;;;;;;;5048603;28;20422;-80
2021/12/19 00:33:29;;;;;;;212.48;73.80;;;;;;;;;;5048623;28;20033;-80
2021/12/19 00:35:55;;;;;;;220.23;80.05;;;;;;;;;;5053911;28;20032;-80
2021/12/19 00:38:21;;;;;;;218.43;79.70;;;;;;;;;;5053837;28;20036;-80
2021/12/19 00:40:47;;;;;;;205.02;73.72;;;;;;;;;;5054397;28;20038;-79
2021/12/19 00:43:24;;;;;;;174.00;64.22;;;;;;;;;;5059355;28;20390;-80
2021/12/19 00:45:51;;;;;;;151.50;59.70;;;;;;;;;;5081014;28;20120;-80
2021/12/19 00:48:17;;;;;;;127.28;54.72;;;;;;;;;;5053417;28;20439;-80
2021/12/19 00:50:43;;;;;;;119.72;48.78;;;;;;;;;;5053898;28;20076;-79
2021/12/19 00:53:09;;;;;;;112.78;46.13;;;;;;;;;;5051538;28;20127;-79
2021/12/19 00:55:36;;;;;;;104.50;47.10;;;;;;;;;;5054367;28;20112;-80
2021/12/19 00:58:02;;;;;;;112.65;47.03;;;;;;;;;;5053248;28;20033;-80
2021/12/19 01:00:30;;;;;;;104.35;44.28;;;;;;;;;;5054125;28;20112;-80
2021/12/19 01:02:59;;;;;;;118.93;50.67;;;;;;;;;;5053498;28;20128;-80
2021/12/19 01:05:26;;;;;;;161.93;64.63;;;;;;;;;;5048801;28;20522;-80
2021/12/19 01:07:52;;;;;;;262.38;89.43;;;;;;;;;;5033696;28;20095;-80
2021/12/19 01:10:18;;;;;;;393.58;128.10;;;;;;;;;;5049071;28;20032;-80
2021/12/19 01:12:44;;;;;;;416.77;138.30;;;;;;;;;;5051777;28;20036;-80
2021/12/19 01:15:11;;;;;;;367.67;119.22;;;;;;;;;;5053196;28;20040;-79
2021/12/19 01:17:37;;;;;;;298.13;103.25;;;;;;;;;;5051887;28;20043;-80
2021/12/19 01:20:04;;;;;;;276.58;91.43;;;;;;;;;;5053115;28;20029;-79
2021/12/19 01:22:30;;;;;;;273.60;93.28;;;;;;;;;;5053190;28;20476;-79
2021/12/19 01:24:56;;;;;;;217.60;79.90;;;;;;;;;;5052876;28;20033;-80
2021/12/19 01:27:22;;;;;;;181.23;66.47;;;;;;;;;;5053137;28;20045;-80
2021/12/19 01:29:48;;;;;;;158.63;60.55;;;;;;;;;;5052417;28;20043;-80
2021/12/19 01:32:14;;;;;;;146.48;59.55;;;;;;;;;;5053057;28;20044;-80
2021/12/19 01:34:40;;;;;;;150.73;59.97;;;;;;;;;;5052970;28;20033;-80
2021/12/19 01:37:07;;;;;;;162.15;66.82;;;;;;;;;;5052994;28;20047;-79
2021/12/19 01:39:33;;;;;;;153.05;59.83;;;;;;;;;;5052965;28;20226;-79
2021/12/19 01:41:59;;;;;;;159.60;65.53;;;;;;;;;;5052015;28;20150;-79
2021/12/19 01:44:25;;;;;;;224.25;97.00;;;;;;;;;;5052531;28;20112;-80
2021/12/19 01:46:52;;;;;;;147.73;64.53;;;;;;;;;;5051612;28;20052;-80
2021/12/19 01:49:19;;;;;;;116.60;53.63;;;;;;;;;;5052496;28;20372;-80
2021/12/19 01:51:45;;;;;;;93.72;42.75;;;;;;;;;;5052282;28;20037;-80
2021/12/19 01:54:11;;;;;;;79.50;37.55;;;;;;;;;;5053225;28;20029;-80
2021/12/19 01:56:38;;;;;;;85.22;41.08;;;;;;;;;;5052409;28;20043;-80
2021/12/19 01:59:06;;;;;;;94.05;44.85;;;;;;;;;;5052966;28;20083;-80
2021/12/19 02:01:40;;;;;;;92.07;41.92;;;;;;;;;;5050598;28;20467;-80
2021/12/19 02:04:06;;;;;;;99.68;42.47;;;;;;;;;;5053021;28;20029;-80
2021/12/19 02:06:32;;;;;;;91.28;41.88;;;;;;;;;;5052567;28;20467;-80
2021/12/19 02:09:04;;;;;;;91.05;40.83;;;;;;;;;;5051336;28;20566;-80
2021/12/19 02:11:30;;;;;;;;;;;;;;;;;;5044991;28;20486;-80
2021/12/19 02:13:56;;;;;;;92.30;41.03;;;;;;;;;;5031238;28;19909;-79
2021/12/19 02:16:22;;;;;;;87.78;41.63;;;;;;;;;;5037188;28;20113;-79
2021/12/19 02:18:48;;;;;;;86.10;38.83;;;;;;;;;;5052458;28;20108;-80
2021/12/19 02:21:16;;;;;;;80.40;39.83;;;;;;;;;;5050410;28;20037;-79
2021/12/19 02:23:42;;;;;;;82.70;36.70;;;;;;;;;;5052412;28;20115;-79
2021/12/19 02:26:08;;;;;;;74.20;35.72;;;;;;;;;;5052650;28;20112;-80
2021/12/19 02:28:34;;;;;;;72.85;32.95;;;;;;;;;;5052152;28;20041;-80
2021/12/19 02:31:00;;;;;;;63.38;31.20;;;;;;;;;;5038570;28;20623;-80
2021/12/19 02:33:28;;;;;;;73.13;33.20;;;;;;;;;;5032531;28;20080;-80
2021/12/19 02:36:06;;;;;;;66.40;31.13;;;;;;;;;;5032775;28;20520;-79
2021/12/19 02:39:15;;;;;;;68.47;30.92;;;;;;;;;;5032021;28;20026;-79
2021/12/19 02:49:33;;;;;;;71.03;33.88;;;;;;;;;;5051528;28;20380;-79
2021/12/19 02:52:00;;;;;;;65.68;30.33;;;;;;;;;;5050176;28;20032;-79
2021/12/19 02:54:28;;;;;;;58.10;28.63;;;;;;;;;;5051403;28;20035;-79
2021/12/19 02:56:54;;;;;;;59.20;28.58;;;;;;;;;;5042795;28;20036;-79
2021/12/19 02:59:20;;;;;;;61.15;30.48;;;;;;;;;;5050371;28;20111;-79
2021/12/19 03:01:46;;;;;;;57.03;26.88;;;;;;;;;;5051539;28;20104;-79
2021/12/19 03:04:12;;;;;;;59.67;29.58;;;;;;;;;;5051353;28;20033;-79
2021/12/19 03:06:45;;;;;;;61.10;32.75;;;;;;;;;;5050958;28;20044;-79
2021/12/19 03:09:13;;;;;;;70.75;35.50;;;;;;;;;;5051159;28;20068;-79
2021/12/19 03:19:45;;;;;;;66.75;32.42;;;;;;;;;;5031539;28;20057;-79
2021/12/19 03:22:11;;;;;;;65.45;32.47;;;;;;;;;;5050618;28;20037;-79
2021/12/19 03:24:37;;;;;;;63.92;31.40;;;;;;;;;;5050909;28;20052;-79
2021/12/19 03:27:03;;;;;;;71.28;33.38;;;;;;;;;;5050527;28;20036;-79
2021/12/19 03:29:29;;;;;;;63.42;30.98;;;;;;;;;;5050783;28;20478;-78
2021/12/19 03:31:55;;;;;;;63.67;31.42;;;;;;;;;;5050790;28;20075;-79
2021/12/19 03:34:21;;;;;;;62.00;30.38;;;;;;;;;;5050581;28;20057;-79
2021/12/19 03:36:48;;;;;;;63.25;33.17;;;;;;;;;;5050735;28;20029;-79
2021/12/19 03:39:25;;;;;;;62.42;30.08;;;;;;;;;;5050794;28;20511;-79
2021/12/19 03:41:51;;;;;;;67.50;31.52;;;;;;;;;;5048869;28;20075;-79
2021/12/19 03:44:18;;;;;;;64.47;31.75;;;;;;;;;;5050420;28;20024;-79
2021/12/19 03:46:44;;;;;;;62.90;30.70;;;;;;;;;;5046985;28;20034;-79
2021/12/19 03:49:10;;;;;;;66.30;30.98;;;;;;;;;;5050134;28;20029;-79
2021/12/19 03:51:37;;;;;;;67.22;30.30;;;;;;;;;;5050788;28;20049;-79
2021/12/19 03:54:03;;;;;;;61.30;29.13;;;;;;;;;;5050932;28;20025;-79
2021/12/19 03:56:29;;;;;;;61.80;30.90;;;;;;;;;;5050647;28;20029;-79
2021/12/19 03:58:55;;;;;;;64.45;31.88;;;;;;;;;;5029138;28;20048;-79
2021/12/19 04:01:22;;;;;;;66.22;28.98;;;;;;;;;;5030601;28;20391;-79
2021/12/19 04:03:48;;;;;;;70.05;32.90;;;;;;;;;;5046640;28;20056;-79
2021/12/19 04:06:14;;;;;;;61.58;30.15;;;;;;;;;;5050608;28;20972;-79
2021/12/19 04:08:40;;;;;;;67.35;32.05;;;;;;;;;;5050607;28;20025;-79
2021/12/19 04:11:06;;;;;;;60.38;29.08;;;;;;;;;;5054603;28;20037;-79
2021/12/19 04:13:32;;;;;;;70.20;33.38;;;;;;;;;;5054056;28;20044;-79
2021/12/19 04:15:58;;;;;;;64.05;31.45;;;;;;;;;;5054992;28;20052;-79
2021/12/19 04:18:24;;;;;;;66.03;31.50;;;;;;;;;;5054862;28;20029;-79
2021/12/19 04:20:50;;;;;;;72.43;30.70;;;;;;;;;;5054777;28;20070;-79
2021/12/19 04:23:16;;;;;;;65.03;29.73;;;;;;;;;;5054413;28;20040;-79
2021/12/19 04:25:42;;;;;;;70.00;33.22;;;;;;;;;;5054257;28;20036;-79
2021/12/19 04:28:08;;;;;;;71.50;32.30;;;;;;;;;;5053821;28;20147;-79
2021/12/19 04:30:35;;;;;;;66.47;31.33;;;;;;;;;;5052739;28;20610;-79
2021/12/19 04:33:04;;;;;;;66.55;32.22;;;;;;;;;;5054290;28;20080;-79
2021/12/19 04:35:34;;;;;;;64.32;30.23;;;;;;;;;;5053202;28;20136;-79
2021/12/19 04:51:53;;;;;;;67.57;29.52;;;;;;;;;;5053614;28;20557;-79
2021/12/19 05:02:14;;;;;;;75.45;35.95;;;;;;;;;;5053762;28;20553;-79
2021/12/19 05:15:53;;;;;;;62.22;29.15;;;;;;;;;;5053483;28;20617;-79
2021/12/19 05:18:23;;;;;;;68.93;29.23;;;;;;;;;;5053481;28;20029;-79
2021/12/19 05:20:57;;;;;;;72.18;32.13;;;;;;;;;;5052138;28;20444;-79
2021/12/19 05:23:37;;;;;;;66.50;29.85;;;;;;;;;;5053469;28;20025;-79
2021/12/19 05:26:04;;;;;;;59.42;27.20;;;;;;;;;;5053526;28;20078;-79
2021/12/19 05:28:30;;;;;;;60.35;30.13;;;;;;;;;;5053716;28;20033;-79
2021/12/19 05:30:56;;;;;;;71.78;30.58;;;;;;;;;;5048112;28;20206;-79
2021/12/19 05:33:22;;;;;;;63.70;29.80;;;;;;;;;;5033459;28;20029;-79
2021/12/19 05:36:09;;;;;;;61.25;27.50;;;;;;;;;;5041829;28;20028;-79
2021/12/19 05:46:39;;;;;;;67.78;30.08;;;;;;;;;;5052984;28;20075;-79
2021/12/19 05:49:06;;;;;;;67.47;31.10;;;;;;;;;;5052129;28;20051;-79
2021/12/19 05:51:33;;;;;;;73.15;33.13;;;;;;;;;;5052365;28;20095;-79
2021/12/19 05:53:59;;;;;;;83.78;36.35;;;;;;;;;;5052383;28;20100;-79
2021/12/19 05:56:25;;;;;;;64.95;31.92;;;;;;;;;;5052237;28;20033;-79
2021/12/19 05:58:51;;;;;;;72.85;34.53;;;;;;;;;;5051230;28;20033;-79
2021/12/19 06:01:17;;;;;;;76.22;35.45;;;;;;;;;;5052429;28;20399;-79
2021/12/19 06:03:43;;;;;;;63.03;30.40;;;;;;;;;;5052492;28;20017;-79
2021/12/19 06:06:09;;;;;;;75.57;36.10;;;;;;;;;;5052215;28;20025;-79
2021/12/19 06:08:35;;;;;;;67.57;30.80;;;;;;;;;;5050868;28;20124;-79
2021/12/19 06:11:01;;;;;;;72.22;33.10;;;;;;;;;;5040619;28;20440;-79
2021/12/19 06:13:27;;;;;;;68.95;32.88;;;;;;;;;;5043219;28;20063;-79
2021/12/19 06:15:55;;;;;;;68.38;30.73;;;;;;;;;;5047359;28;20111;-79
2021/12/19 06:18:22;;;;;;;73.30;34.83;;;;;;;;;;5042429;28;20026;-79
2021/12/19 06:20:48;;;;;;;68.95;33.08;;;;;;;;;;5032451;28;20026;-79
2021/12/19 06:23:14;;;;;;;68.97;31.73;;;;;;;;;;5031803;28;20034;-79
2021/12/19 06:25:45;;;;;;;57.83;27.88;;;;;;;;;;5035970;28;20098;-79
2021/12/19 06:28:15;;;;;;;61.38;27.80;;;;;;;;;;5052105;28;20525;-79
2021/12/19 06:30:41;;;;;;;59.55;28.50;;;;;;;;;;5051478;28;20033;-78
2021/12/19 06:33:08;;;;;;;58.83;27.95;;;;;;;;;;5064546;28;20032;-79
2021/12/19 06:35:34;;;;;;;69.93;31.95;;;;;;;;;;5060206;28;20036;-79
2021/12/19 06:38:00;;;;;;;63.05;31.80;;;;;;;;;;5057069;28;20742;-80
2021/12/19 06:40:26;;;;;;;68.47;31.85;;;;;;;;;;5045580;28;20602;-79
2021/12/19 06:42:52;;;;;;;63.65;28.95;;;;;;;;;;5050860;28;20040;-79
2021/12/19 06:45:19;;;;;;;60.03;28.00;;;;;;;;;;5051095;28;20119;-79
2021/12/19 06:47:45;;;;;;;65.15;31.02;;;;;;;;;;5049880;28;20427;-78
2021/12/19 06:50:12;;;;;;;66.13;30.35;;;;;;;;;;5050632;28;20533;-78
2021/12/19 06:52:38;;;;;;;55.00;25.52;;;;;;;;;;5052598;28;20427;-78
2021/12/19 06:55:05;;;;;;;62.90;29.58;;;;;;;;;;5058729;28;20102;-78
2021/12/19 06:57:31;;;;;;;57.78;28.38;;;;;;;;;;5050489;28;20074;-78
2021/12/19 06:59:57;;;;;;;57.08;25.40;;;;;;;;;;5047793;28;20029;-79
2021/12/19 07:02:23;;;;;;;55.03;25.25;;;;;;;;;;5050714;28;20043;-79
2021/12/19 07:04:49;;;;;;;56.03;27.38;;;;;;;;;;5050285;28;20078;-79
2021/12/19 07:07:15;;;;;;;60.88;28.88;;;;;;;;;;5051155;28;20032;-79
2021/12/19 07:09:41;;;;;;;61.70;27.90;;;;;;;;;;5050778;28;20036;-79
2021/12/19 07:12:08;;;;;;;57.28;26.75;;;;;;;;;;5050814;28;20037;-78
2021/12/19 07:14:35;;;;;;;63.17;28.42;;;;;;;;;;5050981;28;20028;-78
2021/12/19 07:17:01;;;;;;;54.60;27.58;;;;;;;;;;5039386;28;20040;-79
2021/12/19 07:19:27;;;;;;;66.63;30.88;;;;;;;;;;5037415;28;20033;-79
2021/12/19 07:21:53;;;;;;;61.13;29.13;;;;;;;;;;5045524;28;20534;-79
2021/12/19 07:24:19;;;;;;;63.28;28.88;;;;;;;;;;5051278;28;20033;-79
2021/12/19 07:26:45;;;;;;;54.05;25.92;;;;;;;;;;5051456;28;20068;-79
2021/12/19 07:29:11;;;;;;;52.85;26.17;;;;;;;;;;5058161;28;20481;-79
2021/12/19 07:31:37;;;;;;;59.72;29.58;;;;;;;;;;5050968;28;20119;-78
2021/12/19 07:34:04;;;;;;;53.40;26.95;;;;;;;;;;5050838;28;20379;-79
2021/12/19 07:36:38;;;;;;;64.40;27.10;;;;;;;;;;5045019;28;20498;-79
2021/12/19 07:39:09;;;;;;;60.58;26.88;;;;;;;;;;5042211;28;20026;-79
2021/12/19 07:41:35;;;;;;;55.78;26.17;;;;;;;;;;5044423;28;20120;-79
2021/12/19 07:44:01;;;;;;;61.58;28.52;;;;;;;;;;5046795;28;20040;-79
2021/12/19 07:46:28;;;;;;;59.50;27.55;;;;;;;;;;5048661;28;20041;-80
2021/12/19 07:48:53;;;;;;;58.22;26.30;;;;;;;;;;5049386;28;20033;-80
2021/12/19 07:51:19;;;;;;;64.90;30.23;;;;;;;;;;5048878;28;20052;-79
2021/12/19 07:53:45;;;;;;;72.93;28.45;;;;;;;;;;5047727;28;20054;-80
2021/12/19 07:56:11;;;;;;;65.88;29.40;;;;;;;;;;5045733;28;20033;-80
2021/12/19 07:58:38;;;;;;;67.82;29.77;;;;;;;;;;5047609;28;20025;-79
2021/12/19 08:01:04;;;;;;;72.53;33.38;;;;;;;;;;5048390;28;20031;-79
2021/12/19 08:03:31;;;;;;;70.70;28.85;;;;;;;;;;5048206;28;20086;-79
2021/12/19 08:05:57;;;;;;;59.63;26.90;;;;;;;;;;5054840;28;20033;-80
2021/12/19 08:08:27;;;;;;;65.78;30.65;;;;;;;;;;5050030;28;20044;-80
2021/12/19 08:13:39;;;;;;;67.75;31.63;;;;;;;;;;5050150;28;20032;-79
2021/12/19 08:16:05;;;;;;;70.03;31.13;;;;;;;;;;5052953;28;20058;-80
2021/12/19 08:18:31;;;;;;;59.97;25.95;;;;;;;;;;5048691;28;20032;-80
2021/12/19 08:20:57;;;;;;;57.90;27.83;;;;;;;;;;5050462;28;20025;-78
2021/12/19 08:23:23;;;;;;;59.58;27.27;;;;;;;;;;5051517;28;20817;-81
2021/12/19 08:25:49;;;;;;;64.95;29.40;;;;;;;;;;5051388;28;20793;-80
2021/12/19 08:28:15;;;;;;;67.03;29.02;;;;;;;;;;5050756;28;20029;-80
2021/12/19 08:30:41;;;;;;;64.20;28.05;;;;;;;;;;5059785;28;20119;-80
2021/12/19 08:33:07;;;;;;;58.80;27.63;;;;;;;;;;5050873;28;20434;-80
2021/12/19 08:35:34;;;;;;;62.63;28.83;;;;;;;;;;5051585;28;20112;-80
2021/12/19 08:38:00;;;;;;;57.67;27.10;;;;;;;;;;5051175;28;20036;-80
2021/12/19 08:40:28;;;;;;;59.35;27.13;;;;;;;;;;5050969;28;20075;-80
2021/12/19 08:42:54;;;;;;;69.07;30.50;;;;;;;;;;5051105;28;20087;-80
2021/12/19 08:45:21;;;;;;;71.05;31.67;;;;;;;;;;5057679;28;20066;-80
2021/12/19 08:47:47;;;;;;;61.67;26.25;;;;;;;;;;5054561;28;20091;-80
2021/12/19 08:50:13;;;;;;;56.17;27.98;;;;;;;;;;5057552;28;20508;-80
2021/12/19 08:52:40;;;;;;;59.42;27.67;;;;;;;;;;5050894;28;20037;-80
2021/12/19 08:55:07;;;;;;;69.75;32.22;;;;;;;;;;5052055;28;20036;-80
2021/12/19 08:57:33;;;;;;;68.05;29.33;;;;;;;;;;5054726;28;20036;-80
2021/12/19 08:59:59;;;;;;;60.28;27.17;;;;;;;;;;5054211;28;20235;-81
2021/12/19 09:02:25;;;;;;;59.28;25.95;;;;;;;;;;5055105;28;20040;-80
2021/12/19 09:04:51;;;;;;;58.72;27.42;;;;;;;;;;5055402;28;20037;-80
2021/12/19 09:07:18;;;;;;;61.05;28.40;;;;;;;;;;5054750;28;20468;-81
2021/12/19 09:09:45;;;;;;;58.22;25.77;;;;;;;;;;5055323;28;20570;-80
2021/12/19 09:12:11;;;;;;;69.25;30.40;;;;;;;;;;5054793;28;20033;-80
2021/12/19 09:14:37;;;;;;;63.13;30.52;;;;;;;;;;5055023;28;20090;-80
2021/12/19 09:17:03;;;;;;;58.03;25.73;;;;;;;;;;5054359;28;20028;-80
2021/12/19 09:19:30;;;;;;;59.17;25.98;;;;;;;;;;5054978;28;20033;-80
2021/12/19 09:21:56;;;;;;;55.05;25.17;;;;;;;;;;5054075;28;20104;-80
2021/12/19 09:24:22;;;;;;;58.55;26.52;;;;;;;;;;5054364;28;20111;-80
2021/12/19 09:26:48;;;;;;;59.90;27.27;;;;;;;;;;5053413;28;20120;-80
2021/12/19 09:29:14;;;;;;;53.63;24.05;;;;;;;;;;5054617;28;20040;-80
2021/12/19 09:31:40;;;;;;;57.58;24.17;;;;;;;;;;5054331;28;20029;-80
2021/12/19 09:34:07;;;;;;;55.25;23.58;;;;;;;;;;5054176;28;20051;-78
2021/12/19 09:36:33;;;;;;;55.90;24.73;;;;;;;;;;5054140;28;20541;-77
2021/12/19 09:38:59;;;;;;;54.50;24.55;;;;;;;;;;5052336;28;20033;-80
2021/12/19 09:41:30;;;;;;;56.80;25.75;;;;;;;;;;5054658;28;20040;-78
2021/12/19 09:44:02;;;;;;;59.58;24.95;;;;;;;;;;5053163;28;20013;-78
2021/12/19 09:46:28;;;;;;;;;;;;;;;;;;5061357;28;20052;-77
2021/12/19 09:48:54;;;;;;;59.40;26.23;;;;;;;;;;5077113;28;20490;-80
2021/12/19 09:51:20;;;;;;;75.10;36.17;;;;;;;;;;5068920;28;20047;-80
2021/12/19 09:53:46;;;;;;;64.88;26.90;;;;;;;;;;5065150;28;20024;-79
2021/12/19 09:56:13;;;;;;;68.70;30.10;;;;;;;;;;5061724;28;20057;-80
2021/12/19 09:58:40;;;;;;;74.55;30.83;;;;;;;;;;5054350;28;20024;-80
2021/12/19 10:01:07;;;;;;;55.85;24.10;;;;;;;;;;5055564;28;20036;-80
2021/12/19 10:03:35;;;;;;;67.65;26.73;;;;;;;;;;5049996;28;20033;-80
2021/12/19 10:06:18;;;;;;;60.28;23.35;;;;;;;;;;5055984;28;20029;-80
2021/12/19 10:08:45;;;;;;;50.95;20.75;;;;;;;;;;5054884;28;20025;-80
2021/12/19 10:11:46;;;;;;;53.35;23.40;;;;;;;;;;5050115;28;20045;-81
2021/12/19 10:14:25;;;;;;;45.42;20.20;;;;;;;;;;5051127;28;20076;-81
2021/12/19 10:16:52;;;;;;;47.53;22.02;;;;;;;;;;5045048;28;20038;-80
2021/12/19 10:19:18;;;;;;;48.47;23.95;;;;;;;;;;5055308;28;20398;-81
2021/12/19 10:21:44;;;;;;;44.88;21.35;;;;;;;;;;5071654;28;20084;-80
2021/12/19 10:24:10;;;;;;;53.70;24.33;;;;;;;;;;5062888;28;20029;-81
2021/12/19 10:26:40;;;;;;;40.17;21.08;;;;;;;;;;5073230;28;20505;-81
2021/12/19 10:29:06;;;;;;;55.28;23.65;;;;;;;;;;5077451;28;20414;-81
2021/12/19 10:31:32;;;;;;;50.40;22.92;;;;;;;;;;5052090;28;20422;-80
2021/12/19 10:33:58;;;;;;;48.88;24.58;;;;;;;;;;5053483;28;20486;-80
2021/12/19 10:36:24;;;;;;;39.00;19.52;;;;;;;;;;5053275;28;20070;-80
2021/12/19 10:38:52;;;;;;;41.80;20.33;;;;;;;;;;5052109;28;20032;-80
2021/12/19 10:41:20;;;;;;;41.75;19.20;;;;;;;;;;5059854;28;20033;-81
2021/12/19 10:43:47;;;;;;;43.55;19.88;;;;;;;;;;5069545;28;20025;-81
2021/12/19 10:46:13;;;;;;;44.05;20.05;;;;;;;;;;5053122;28;20029;-80
2021/12/19 10:48:40;;;;;;;40.65;19.60;;;;;;;;;;5068890;28;20025;-81
2021/12/19 10:51:07;;;;;;;46.70;21.85;;;;;;;;;;5052959;28;20043;-81
2021/12/19 10:53:36;;;;;;;45.17;18.60;;;;;;;;;;5053086;28;20036;-80
2021/12/19 10:56:06;;;;;;;44.90;18.73;;;;;;;;;;5052460;28;20029;-80
2021/12/19 10:58:34;;;;;;;41.08;19.30;;;;;;;;;;5053366;28;20025;-81
2021/12/19 11:01:08;;;;;;;36.90;17.60;;;;;;;;;;5053198;28;20108;-80
2021/12/19 11:03:35;;;;;;;43.65;19.77;;;;;;;;;;5044155;28;20079;-80
2021/12/19 11:06:01;;;;;;;33.75;17.55;;;;;;;;;;5052934;28;20032;-80
2021/12/19 11:08:33;;;;;;;37.75;16.48;;;;;;;;;;5067990;28;20079;-80
2021/12/19 11:10:59;;;;;;;38.85;17.00;;;;;;;;;;5053178;28;20039;-80
2021/12/19 11:13:25;;;;;;;40.60;17.15;;;;;;;;;;5051525;28;20525;-81
2021/12/19 11:15:51;;;;;;;35.03;16.95;;;;;;;;;;5059637;28;20062;-81
2021/12/19 11:18:17;;;;;;;36.58;17.27;;;;;;;;;;5052286;28;20029;-80
2021/12/19 11:20:43;;;;;;;31.02;14.80;;;;;;;;;;5055461;28;20040;-80
2021/12/19 11:23:09;;;;;;;30.85;14.45;;;;;;;;;;5051652;28;20099;-80
2021/12/19 11:25:38;;;;;;;31.90;15.85;;;;;;;;;;5052824;28;20037;-80
2021/12/19 11:28:05;;;;;;;29.98;15.55;;;;;;;;;;5052158;28;20429;-80
2021/12/19 11:30:31;;;;;;;38.33;16.77;;;;;;;;;;5068024;28;20062;-80
2021/12/19 11:33:16;;;;;;;31.15;15.02;;;;;;;;;;5067989;28;20129;-80
2021/12/19 11:35:46;;;;;;;34.58;15.40;;;;;;;;;;5052839;28;20079;-80
2021/12/19 11:38:14;;;;;;;40.17;16.33;;;;;;;;;;5066644;28;20029;-80
2021/12/19 11:40:40;;;;;;;32.97;16.08;;;;;;;;;;5047232;28;20518;-81
2021/12/19 11:43:07;;;;;;;42.65;18.80;;;;;;;;;;5060736;28;20072;-81
2021/12/19 11:45:53;;;;;;;45.88;19.33;;;;;;;;;;5067188;28;20032;-80
2021/12/19 11:48:28;;;;;;;43.53;19.25;;;;;;;;;;5048270;28;20041;-79
2021/12/19 11:50:54;;;;;;;42.55;19.05;;;;;;;;;;5041280;28;20451;-81
2021/12/19 11:53:25;;;;;;;32.70;16.55;;;;;;;;;;5044834;28;20124;-81
2021/12/19 11:55:53;;;;;;;36.90;16.53;;;;;;;;;;5046616;28;20052;-80
2021/12/19 11:58:23;;;;;;;39.50;17.80;;;;;;;;;;5050360;28;20142;-80
2021/12/19 12:00:50;;;;;;;32.00;15.13;;;;;;;;;;5051967;28;20746;-80
2021/12/19 12:03:16;;;;;;;38.42;17.40;;;;;;;;;;5051103;28;20119;-80
2021/12/19 12:05:47;;;;;;;32.47;16.95;;;;;;;;;;5052039;28;20068;-80
2021/12/19 12:08:14;;;;;;;30.25;15.40;;;;;;;;;;5051039;28;20091;-81
2021/12/19 12:10:50;;;;;;;28.92;14.57;;;;;;;;;;5051760;28;20029;-80
2021/12/19 12:13:36;;;;;;;30.05;14.90;;;;;;;;;;5051850;28;20052;-80
2021/12/19 12:16:22;;;;;;;30.80;15.60;;;;;;;;;;5041245;28;20124;-80
2021/12/19 12:18:56;;;;;;;30.27;15.50;;;;;;;;;;5049752;28;20021;-81
2021/12/19 12:21:25;;;;;;;28.27;15.05;;;;;;;;;;5048621;28;20480;-80
2021/12/19 12:23:53;;;;;;;29.17;13.77;;;;;;;;;;5049377;28;20021;-80
2021/12/19 12:26:27;;;;;;;29.65;14.65;;;;;;;;;;5056699;28;20516;-80
2021/12/19 12:28:53;;;;;;;31.92;15.50;;;;;;;;;;5060271;28;20018;-80
2021/12/19 12:31:19;;;;;;;32.85;16.75;;;;;;;;;;5054928;28;20357;-81
2021/12/19 12:33:45;;;;;;;33.78;16.48;;;;;;;;;;5046330;28;20451;-80
2021/12/19 12:36:11;;;;;;;32.55;15.30;;;;;;;;;;5054691;28;20055;-80
2021/12/19 12:38:37;;;;;;;33.25;17.77;;;;;;;;;;5053870;28;20464;-81
2021/12/19 12:41:10;;;;;;;32.88;15.85;;;;;;;;;;5042546;28;20030;-81
2021/12/19 12:43:37;;;;;;;37.33;17.30;;;;;;;;;;5037863;28;20029;-81
2021/12/19 12:46:07;;;;;;;38.83;20.00;;;;;;;;;;5054154;28;20028;-81
2021/12/19 12:48:50;;;;;;;40.70;20.25;;;;;;;;;;5053683;28;20033;-81
2021/12/19 12:51:24;;;;;;;48.10;23.95;;;;;;;;;;5053601;28;20055;-81
2021/12/19 12:53:53;;;;;;;51.22;25.58;;;;;;;;;;5053169;28;20021;-80
2021/12/19 12:56:21;;;;;;;40.88;19.70;;;;;;;;;;5053564;28;20033;-81
2021/12/19 12:58:49;;;;;;;41.40;20.38;;;;;;;;;;5053832;28;20063;-80
2021/12/19 13:01:16;;;;;;;44.97;19.90;;;;;;;;;;5053841;28;20524;-81
2021/12/19 13:04:03;;;;;;;42.75;20.35;;;;;;;;;;5053989;28;20057;-81
2021/12/19 13:06:48;;;;;;;46.08;21.70;;;;;;;;;;5038156;28;20037;-81
2021/12/19 13:09:22;;;;;;;40.67;20.35;;;;;;;;;;5047101;28;20060;-80
2021/12/19 13:11:49;;;;;;;46.65;19.80;;;;;;;;;;5043598;28;20033;-81
2021/12/19 13:14:21;;;;;;;41.72;19.75;;;;;;;;;;5039092;28;20029;-81
2021/12/19 13:16:52;;;;;;;42.83;19.30;;;;;;;;;;5053395;28;20036;-81
2021/12/19 13:19:35;;;;;;;39.13;17.92;;;;;;;;;;5053316;28;20533;-81
2021/12/19 13:22:01;;;;;;;43.17;19.80;;;;;;;;;;5041612;28;20136;-80
2021/12/19 13:24:30;;;;;;;44.83;22.73;;;;;;;;;;5041531;28;20379;-81
2021/12/19 13:27:10;;;;;;;43.80;21.30;;;;;;;;;;5056045;28;20063;-81
2021/12/19 13:29:36;;;;;;;37.88;18.95;;;;;;;;;;5035161;28;20037;-81
2021/12/19 13:32:21;;;;;;;40.55;19.40;;;;;;;;;;5061035;28;20029;-81
2021/12/19 13:34:48;;;;;;;41.60;20.02;;;;;;;;;;5050680;28;20026;-80
2021/12/19 13:37:14;;;;;;;40.83;18.95;;;;;;;;;;5049330;28;20048;-81
2021/12/19 13:39:42;;;;;;;45.90;19.67;;;;;;;;;;5050394;28;20032;-80
2021/12/19 13:42:12;;;;;;;43.17;20.42;;;;;;;;;;5046584;28;20037;-80
2021/12/19 13:44:39;;;;;;;43.65;21.05;;;;;;;;;;5052293;28;20112;-81
2021/12/19 13:47:12;;;;;;;41.53;19.40;;;;;;;;;;5037429;28;20133;-80
2021/12/19 13:49:38;;;;;;;46.53;21.83;;;;;;;;;;5042180;28;20068;-80
2021/12/19 13:52:05;;;;;;;42.05;19.27;;;;;;;;;;5062667;28;20234;-80
2021/12/19 13:54:34;;;;;;;43.85;20.98;;;;;;;;;;5047690;28;20053;-80
2021/12/19 13:57:00;;;;;;;37.75;17.35;;;;;;;;;;5047220;28;20040;-81
2021/12/19 13:59:27;;;;;;;44.03;20.52;;;;;;;;;;5052066;28;20021;-80
2021/12/19 14:01:54;;;;;;;44.22;21.13;;;;;;;;;;5059006;28;20036;-80
2021/12/19 14:04:25;;;;;;;46.45;22.23;;;;;;;;;;5051506;28;20033;-81
2021/12/19 14:06:56;;;;;;;44.90;20.40;;;;;;;;;;5051164;28;20060;-81
2021/12/19 14:09:23;;;;;;;45.10;20.92;;;;;;;;;;5037299;28;20364;-80
2021/12/19 14:11:56;;;;;;;42.95;20.38;;;;;;;;;;5031703;28;20033;-80
2021/12/19 14:14:28;;;;;;;44.95;21.38;;;;;;;;;;5046543;28;20029;-80
2021/12/19 14:17:08;;;;;;;34.38;15.25;;;;;;;;;;5051640;28;20063;-81
2021/12/19 14:19:36;;;;;;;43.20;21.42;;;;;;;;;;5031534;28;20060;-80
2021/12/19 14:22:05;;;;;;;46.80;21.67;;;;;;;;;;5031755;28;20079;-80
2021/12/19 14:24:41;;;;;;;48.95;22.65;;;;;;;;;;5050511;28;20468;-80
2021/12/19 14:27:27;;;;;;;45.08;21.27;;;;;;;;;;5059602;28;20047;-81
2021/12/19 14:29:57;;;;;;;54.10;24.88;;;;;;;;;;5056996;28;20104;-80
2021/12/19 14:32:23;;;;;;;51.72;23.20;;;;;;;;;;5038066;28;20037;-80
2021/12/19 14:35:09;;;;;;;42.35;21.92;;;;;;;;;;5050892;28;20031;-81
2021/12/19 14:37:40;;;;;;;49.33;22.80;;;;;;;;;;5037677;28;20044;-80
2021/12/19 14:40:12;;;;;;;42.75;21.25;;;;;;;;;;5051202;28;20059;-80
2021/12/19 14:42:41;;;;;;;54.65;23.73;;;;;;;;;;5051748;28;20112;-81
2021/12/19 14:45:11;;;;;;;46.45;22.02;;;;;;;;;;5038265;28;20029;-80
2021/12/19 14:47:39;;;;;;;44.85;23.05;;;;;;;;;;5047747;28;20045;-81
2021/12/19 14:50:14;;;;;;;45.25;21.60;;;;;;;;;;5050287;28;20881;-80
2021/12/19 14:52:41;;;;;;;45.78;23.60;;;;;;;;;;5053843;28;20045;-79
2021/12/19 14:55:11;;;;;;;44.15;21.25;;;;;;;;;;5056870;28;20608;-79
2021/12/19 14:57:37;;;;;;;44.83;20.98;;;;;;;;;;5054453;28;20571;-80
2021/12/19 15:00:05;;;;;;;47.25;22.67;;;;;;;;;;5043922;28;20100;-80
2021/12/19 15:02:31;;;;;;;41.63;20.67;;;;;;;;;;5050945;28;20037;-80
2021/12/19 15:04:58;;;;;;;43.28;21.70;;;;;;;;;;5049537;28;20092;-79
2021/12/19 15:07:26;;;;;;;35.85;18.77;;;;;;;;;;5050424;28;20416;-80
2021/12/19 15:09:52;;;;;;;36.92;19.60;;;;;;;;;;5047734;28;20843;-79
2021/12/19 15:12:18;;;;;;;45.95;24.30;;;;;;;;;;5047854;28;20775;-80
2021/12/19 15:14:44;;;;;;;51.55;26.08;;;;;;;;;;5050397;28;20029;-80
2021/12/19 15:17:10;;;;;;;49.45;23.48;;;;;;;;;;5047697;28;20033;-80
2021/12/19 15:19:36;;;;;;;50.83;25.63;;;;;;;;;;5051837;28;20051;-81
2021/12/19 15:22:02;;;;;;;46.90;23.92;;;;;;;;;;5052221;28;20056;-81
2021/12/19 15:24:28;;;;;;;53.92;25.55;;;;;;;;;;5053185;28;20029;-81